createdAt,value
2023-02-06T00:00:18.977Z,24.83
2023-02-06T00:02:46.271Z,12.07
2023-02-06T00:05:19.793Z,11.35
2023-02-06T00:07:46.940Z,10.13
2023-02-06T00:10:20.920Z,17.95
2023-02-06T00:12:48.005Z,20.35
2023-02-06T00:15:15.222Z,15.18
2023-02-06T00:17:48.772Z,12.43
2023-02-06T00:20:15.901Z,19.92
2023-02-06T00:22:49.800Z,15.13
2023-02-06T00:25:16.945Z,14.38
2023-02-06T00:27:44.266Z,16.02
2023-02-06T00:30:17.785Z,13.05
2023-02-06T00:32:44.884Z,11.98
2023-02-06T00:35:12.145Z,11.90
2023-02-06T00:37:45.829Z,11.52
2023-02-06T00:40:12.988Z,9.23
2023-02-06T00:42:47.022Z,10.30
2023-02-06T00:45:14.132Z,10.18
2023-02-06T00:47:41.383Z,11.95
2023-02-06T00:50:14.796Z,10.30
2023-02-06T00:52:41.871Z,8.85
2023-02-06T00:55:15.925Z,10.25
2023-02-06T00:57:49.819Z,7.40
2023-02-06T01:00:30.949Z,9.65
2023-02-06T01:02:58.054Z,19.20
2023-02-06T01:05:25.369Z,6.93
2023-02-06T01:07:58.805Z,7.85
2023-02-06T01:10:25.952Z,10.02
2023-02-06T01:12:59.810Z,15.07
2023-02-06T01:15:33.842Z,9.32
2023-02-06T01:18:07.996Z,6.63
2023-02-06T01:20:35.179Z,10.18
2023-02-06T01:23:02.420Z,7.53
2023-02-06T01:25:37.162Z,7.97
2023-02-06T01:28:04.502Z,8.98
2023-02-06T01:30:37.855Z,12.00
2023-02-06T01:33:04.982Z,7.32
2023-02-06T01:35:32.153Z,12.65
2023-02-06T01:38:11.787Z,9.70
2023-02-06T01:40:38.939Z,7.72
2023-02-06T01:43:13.949Z,6.60
2023-02-06T01:45:42.719Z,6.13
2023-02-06T01:48:11.731Z,7.88
2023-02-06T01:50:46.816Z,6.32
2023-02-06T01:53:15.609Z,6.20
2023-02-06T01:55:50.858Z,5.25
2023-02-06T01:58:26.781Z,5.90
2023-02-06T02:01:07.963Z,8.30
2023-02-06T02:03:42.853Z,5.45
2023-02-06T02:06:11.387Z,5.57
2023-02-06T02:08:40.125Z,5.95
2023-02-06T02:11:14.860Z,5.15
2023-02-06T02:13:42.034Z,8.05
2023-02-06T02:16:25.827Z,9.43
2023-02-06T02:18:59.187Z,6.18
2023-02-06T02:21:47.865Z,9.27
2023-02-06T02:26:48.781Z,12.45
2023-02-06T02:29:34.716Z,7.60
2023-02-06T02:32:27.020Z,5.25
2023-02-06T02:35:03.229Z,5.90
2023-02-06T02:37:36.817Z,6.43
2023-02-06T02:40:04.393Z,7.03
2023-02-06T02:42:50.925Z,5.93
2023-02-06T02:45:25.265Z,6.05
2023-02-06T02:48:04.825Z,9.05
2023-02-06T02:50:32.995Z,5.72
2023-02-06T02:53:07.922Z,6.45
2023-02-06T02:55:35.642Z,6.03
2023-02-06T02:58:29.854Z,6.22
2023-02-06T03:01:05.251Z,6.00
2023-02-06T03:03:38.948Z,7.05
2023-02-06T03:06:13.198Z,5.75
2023-02-06T03:09:18.952Z,6.10
2023-02-06T03:11:51.012Z,6.05
2023-02-06T03:14:35.835Z,6.55
2023-02-06T03:17:11.725Z,6.70
2023-02-06T03:19:43.243Z,8.32
2023-02-06T03:22:17.737Z,5.10
2023-02-06T03:24:45.248Z,6.75
2023-02-06T03:29:47.667Z,6.20
2023-02-06T03:32:32.735Z,7.60
2023-02-06T03:35:05.871Z,6.22
2023-02-06T03:37:39.769Z,6.90
2023-02-06T03:40:07.996Z,6.68
2023-02-06T03:42:44.742Z,7.20
2023-02-06T03:45:22.809Z,7.65
2023-02-06T03:50:24.805Z,6.85
2023-02-06T03:52:52.591Z,6.75
2023-02-06T03:55:30.863Z,6.25
2023-02-06T03:58:20.717Z,6.93
2023-02-06T04:00:56.042Z,7.32
2023-02-06T04:03:23.425Z,6.38
2023-02-06T04:05:50.585Z,6.28
2023-02-06T04:08:23.811Z,5.00
2023-02-06T04:10:50.938Z,4.68
2023-02-06T04:13:24.943Z,4.45
2023-02-06T04:15:52.120Z,4.47
2023-02-06T04:18:19.383Z,4.75
2023-02-06T04:20:52.922Z,5.25
2023-02-06T04:23:20.430Z,4.93
2023-02-06T04:25:54.937Z,6.53
2023-02-06T04:28:22.179Z,5.00
2023-02-06T04:30:49.397Z,4.85
2023-02-06T04:33:22.850Z,5.38
2023-02-06T04:35:50.093Z,5.97
2023-02-06T04:38:23.967Z,6.03
2023-02-06T04:40:51.253Z,6.35
2023-02-06T04:43:18.339Z,6.22
2023-02-06T04:45:51.846Z,6.68
2023-02-06T04:48:19.181Z,6.72
2023-02-06T04:50:52.913Z,5.93
2023-02-06T04:53:20.135Z,5.45
2023-02-06T04:55:47.332Z,5.90
2023-02-06T04:58:20.833Z,5.95
2023-02-06T05:00:48.012Z,5.63
2023-02-06T05:03:21.944Z,5.35
2023-02-06T05:05:49.380Z,5.65
2023-02-06T05:10:49.881Z,4.70
2023-02-06T05:13:17.119Z,5.15
2023-02-06T05:15:44.280Z,5.03
2023-02-06T05:18:17.831Z,5.20
2023-02-06T05:20:45.064Z,5.18
2023-02-06T05:23:18.878Z,5.78
2023-02-06T05:25:45.973Z,5.75
2023-02-06T05:28:13.248Z,6.55
2023-02-06T05:30:46.991Z,7.13
2023-02-06T05:33:14.237Z,5.50
2023-02-06T05:35:47.833Z,5.90
2023-02-06T05:38:15.024Z,6.20
2023-02-06T05:40:42.252Z,6.32
2023-02-06T05:43:15.937Z,6.65
2023-02-06T05:45:43.079Z,5.80
2023-02-06T05:48:17.077Z,5.95
2023-02-06T05:50:44.344Z,5.25
2023-02-06T05:53:11.606Z,4.45
2023-02-06T05:55:44.940Z,4.50
2023-02-06T05:58:31.759Z,4.38
2023-02-06T06:01:06.009Z,4.85
2023-02-06T06:03:33.605Z,4.22
2023-02-06T06:06:00.752Z,4.88
2023-02-06T06:08:34.822Z,4.75
2023-02-06T06:11:02.899Z,4.55
2023-02-06T06:13:37.020Z,4.68
2023-02-06T06:16:04.368Z,4.38
2023-02-06T06:18:31.538Z,4.20
2023-02-06T06:21:04.952Z,4.45
2023-02-06T06:23:32.135Z,4.70
2023-02-06T06:26:05.880Z,4.18
2023-02-06T06:28:35.008Z,4.45
2023-02-06T06:31:09.973Z,4.22
2023-02-06T06:33:37.170Z,4.30
2023-02-06T06:36:04.617Z,5.00
2023-02-06T06:38:37.966Z,4.32
2023-02-06T06:41:05.462Z,4.75
2023-02-06T06:46:08.994Z,5.07
2023-02-06T06:48:38.115Z,4.47
2023-02-06T06:51:12.839Z,4.97
2023-02-06T06:53:40.301Z,4.63
2023-02-06T06:56:08.226Z,5.10
2023-02-06T06:58:41.933Z,4.78
2023-02-06T07:01:22.841Z,5.05
2023-02-06T07:03:56.872Z,5.20
2023-02-06T07:06:30.791Z,5.57
2023-02-06T07:09:04.901Z,5.13
2023-02-06T07:11:32.040Z,6.25
2023-02-06T07:13:59.330Z,5.45
2023-02-06T07:16:32.992Z,5.20
2023-02-06T07:19:06.921Z,6.00
2023-02-06T07:21:34.981Z,5.30
2023-02-06T07:24:05.384Z,6.10
2023-02-06T07:26:38.846Z,5.28
2023-02-06T07:29:05.948Z,5.70
2023-02-06T07:31:40.026Z,5.60
2023-02-06T07:34:07.136Z,5.38
2023-02-06T07:36:34.434Z,5.40
2023-02-06T07:39:08.915Z,5.03
2023-02-06T07:41:36.135Z,5.28
2023-02-06T07:44:10.004Z,5.55
2023-02-06T07:46:37.267Z,5.50
2023-02-06T07:49:04.477Z,5.65
2023-02-06T07:51:37.900Z,4.60
2023-02-06T07:54:05.088Z,5.90
2023-02-06T07:56:39.020Z,5.03
2023-02-06T07:59:12.957Z,5.32
2023-02-06T08:01:47.051Z,5.53
2023-02-06T08:04:14.294Z,4.90
2023-02-06T08:06:42.499Z,5.25
2023-02-06T08:09:25.205Z,5.13
2023-02-06T08:11:52.315Z,5.68
2023-02-06T08:14:25.996Z,5.60
2023-02-06T08:16:53.150Z,6.18
2023-02-06T08:19:26.915Z,5.63
2023-02-06T08:21:54.064Z,5.03
2023-02-06T08:24:21.253Z,5.50
2023-02-06T08:26:54.922Z,5.28
2023-02-06T08:29:22.152Z,5.53
2023-02-06T08:31:55.868Z,5.45
2023-02-06T08:34:22.974Z,4.70
2023-02-06T08:36:56.955Z,5.07
2023-02-06T08:39:24.146Z,5.05
2023-02-06T08:41:58.031Z,4.80
2023-02-06T08:44:25.395Z,5.32
2023-02-06T08:47:04.690Z,4.78
2023-02-06T08:49:42.864Z,4.65
2023-02-06T08:52:09.945Z,4.40
2023-02-06T08:54:44.087Z,4.93
2023-02-06T08:57:12.840Z,4.03
2023-02-06T08:59:53.929Z,4.55
2023-02-06T09:02:21.172Z,4.32
2023-02-06T09:04:48.526Z,3.70
2023-02-06T09:07:22.916Z,3.70
2023-02-06T09:09:50.069Z,3.70
2023-02-06T09:12:24.006Z,4.00
2023-02-06T09:14:51.156Z,3.85
2023-02-06T09:17:25.273Z,3.70
2023-02-06T09:19:52.543Z,4.22
2023-02-06T09:22:19.621Z,3.97
2023-02-06T09:24:52.904Z,4.38
2023-02-06T09:27:20.262Z,3.65
2023-02-06T09:29:55.112Z,4.35
2023-02-06T09:32:22.268Z,4.07
2023-02-06T09:34:49.415Z,3.97
2023-02-06T09:37:22.998Z,3.85
2023-02-06T09:39:50.266Z,3.92
2023-02-06T09:42:26.900Z,4.07
2023-02-06T09:45:02.058Z,3.50
2023-02-06T09:47:40.958Z,3.65
2023-02-06T09:50:17.539Z,3.63
2023-02-06T09:53:00.978Z,3.30
2023-02-06T09:55:48.796Z,3.50
2023-02-06T09:58:41.022Z,3.10
2023-02-06T10:01:36.875Z,3.50
2023-02-06T10:04:21.437Z,3.35
2023-02-06T10:07:01.805Z,3.35
2023-02-06T10:09:41.232Z,3.08
2023-02-06T10:12:19.872Z,3.08
2023-02-06T10:15:01.661Z,3.03
2023-02-06T10:17:42.829Z,3.00
2023-02-06T10:20:17.331Z,3.30
2023-02-06T10:22:54.824Z,3.60
2023-02-06T10:25:24.672Z,3.97
2023-02-06T10:28:01.885Z,3.90
2023-02-06T10:30:48.002Z,3.13
2023-02-06T10:33:59.803Z,3.97
2023-02-06T10:36:35.650Z,4.28
2023-02-06T10:39:16.834Z,4.38
2023-02-06T10:41:56.209Z,4.65
2023-02-06T10:44:51.839Z,4.90
2023-02-06T10:47:25.344Z,4.97
2023-02-06T10:50:01.835Z,5.57
2023-02-06T10:52:31.541Z,6.32
2023-02-06T10:55:06.841Z,5.43
2023-02-06T10:57:34.702Z,6.15
2023-02-06T11:00:16.124Z,6.47
2023-02-06T11:03:06.550Z,7.55
2023-02-06T11:05:41.041Z,10.27
2023-02-06T11:08:08.499Z,9.15
2023-02-06T11:10:36.145Z,10.85
2023-02-06T11:13:11.892Z,9.93
2023-02-06T11:15:47.647Z,9.05
2023-02-06T11:18:25.273Z,9.75
2023-02-06T11:20:55.490Z,8.52
2023-02-06T11:23:30.896Z,7.82
2023-02-06T11:26:05.978Z,8.43
2023-02-06T11:28:41.034Z,6.97
2023-02-06T11:31:10.017Z,6.88
2023-02-06T11:33:48.971Z,7.28
2023-02-06T11:36:36.323Z,7.18
2023-02-06T11:39:11.912Z,8.73
2023-02-06T11:41:39.070Z,8.45
2023-02-06T11:44:13.022Z,8.02
2023-02-06T11:46:40.358Z,8.60
2023-02-06T11:49:32.136Z,8.20
2023-02-06T11:52:00.458Z,9.23
2023-02-06T11:54:35.935Z,9.98
2023-02-06T11:57:05.130Z,8.73
2023-02-06T11:59:56.978Z,10.40
2023-02-06T12:02:36.096Z,9.82
2023-02-06T12:05:11.912Z,9.57
2023-02-06T12:08:00.301Z,10.13
2023-02-06T12:10:35.910Z,9.60
2023-02-06T12:13:07.610Z,9.77
2023-02-06T12:15:52.169Z,8.60
2023-02-06T12:18:30.124Z,7.30
2023-02-06T12:21:06.029Z,4.90
2023-02-06T12:23:44.642Z,7.93
2023-02-06T12:26:19.938Z,7.25
2023-02-06T12:28:57.593Z,6.95
2023-02-06T12:31:39.039Z,7.05
2023-02-06T12:34:16.921Z,7.13
2023-02-06T12:37:21.077Z,8.02
2023-02-06T12:39:54.950Z,7.93
2023-02-06T12:42:40.049Z,7.78
2023-02-06T12:45:13.321Z,8.30
2023-02-06T12:47:52.916Z,9.32
2023-02-06T12:50:23.554Z,9.55
2023-02-06T12:53:02.921Z,9.15
